Milouin — FT9009 — position and weather

sailwx.info

Track history (hours):
 
Tides and Currents Weather Stations Pressure Air Temp Water Temp Dewpoint Dewpoint Depression Visibility Wind Speed Wind Dir Waves Ship Positions

Milouin

Last reported at 2017-May-23 14:00 UTC. Time now 2017-May-23 18:58 UTC.
Position N 47°18' W 002°04'.

Length 36 m; draft 2.5 m.

Type: Ship. MMSI: 227003190.

Date/timePositionNaut miles runAvg speedWind from/ knotsBaromVisibWave heightAir tempDewpointWater temp
2017-May-23 14:00N 47°18' W 002°04'4 9.0
2017-May-23 13:30N 47°17' W 002°10'1 2.4
2017-May-23 12:55N 47°17' W 002°12'0 0.2
2017-May-23 10:51N 47°17' W 002°12'0 0.0
2017-May-23 08:45N 47°17' W 002°12'0 0.0
2017-May-23 08:21N 47°17' W 002°12'0 0.0
2017-May-23 07:09N 47°17' W 002°12'0 0.2
2017-May-23 07:00N 47°17' W 002°12'1 1.2
2017-May-23 06:30N 47°16' W 002°12'0 0.0
2017-May-23 06:00N 47°16' W 002°12'0 0.0
2017-May-23 05:30N 47°16' W 002°12'0 0.0
2017-May-23 04:57N 47°16' W 002°12'0 0.0
2017-May-23 04:27N 47°16' W 002°12'0 0.0
2017-May-23 04:00N 47°16' W 002°12'0 0.0
2017-May-23 03:30N 47°16' W 002°12'0 0.0
2017-May-23 03:00N 47°16' W 002°12'0 0.0
2017-May-23 02:30N 47°16' W 002°12'0 0.0
2017-May-23 02:00N 47°16' W 002°12'0 0.0
2017-May-23 01:30N 47°16' W 002°12'0 0.0
2017-May-23 01:00N 47°16' W 002°12'0 0.0
2017-May-23 00:30N 47°16' W 002°12'0 0.0
2017-May-23 00:00N 47°16' W 002°12'0 0.0
2017-May-22 23:30N 47°16' W 002°12'0 0.0
2017-May-22 23:00N 47°16' W 002°12'0 0.0
2017-May-22 22:30N 47°16' W 002°12'0 0.0
2017-May-22 22:00N 47°16' W 002°12'0 0.0
2017-May-22 21:27N 47°16' W 002°12'0 0.0
2017-May-22 20:45N 47°16' W 002°12'0 0.0
2017-May-22 20:30N 47°16' W 002°12'0 0.0
2017-May-22 19:57N 47°16' W 002°12'0 0.0
2017-May-22 19:24N 47°16' W 002°12'0 0.0
2017-May-22 18:51N 47°16' W 002°12'0 0.0
2017-May-22 18:30N 47°16' W 002°12'0 0.0
2017-May-22 17:57N 47°16' W 002°12'0 0.0
2017-May-22 17:27N 47°16' W 002°12'0 0.0
2017-May-22 16:57N 47°16' W 002°12'0 0.0
2017-May-22 15:09N 47°16' W 002°12'0 0.0
2017-May-22 14:57N 47°16' W 002°12'0 0.3
2017-May-22 13:51N 47°17' W 002°12'0 1.1
2017-May-22 13:30N 47°16' W 002°12'4 6.9
2017-May-22 12:57N 47°18' W 002°07'2 3.6
2017-May-22 12:30N 47°18' W 002°04'2 4.3
2017-May-22 11:57N 47°17' W 002°01'0 0.0
2017-May-22 11:27N 47°17' W 002°01'0 0.0
2017-May-22 09:57N 47°17' W 002°01'0 0.0
2017-May-22 07:25N 47°17' W 002°01'0 0.7
2017-May-22 06:57N 47°18' W 002°01'0 0.1
2017-May-22 06:30N 47°18' W 002°01'0 0.2
2017-May-22 06:00N 47°18' W 002°01'0 0.5
2017-May-22 05:25N 47°18' W 002°01'0 0.1
2017-May-22 02:06N 47°17' W 002°01'0 0.0
2017-May-22 01:52N 47°17' W 002°01'0 0.0
2017-May-22 01:28N 47°17' W 002°01'0 0.0
2017-May-22 00:57N 47°17' W 002°01'0 0.0
2017-May-22 00:27N 47°17' W 002°01'0 0.0
2017-May-21 23:51N 47°17' W 002°01'0 0.0
2017-May-21 23:30N 47°17' W 002°01'0 0.0
2017-May-21 23:00N 47°17' W 002°01'0 0.0
2017-May-21 22:30N 47°17' W 002°01'0 0.0
2017-May-21 22:00N 47°17' W 002°01'0 0.0
2017-May-21 21:30N 47°17' W 002°01'0 0.0
2017-May-21 21:00N 47°17' W 002°01'0 0.0
2017-May-21 20:30N 47°17' W 002°01'0 0.0
2017-May-21 20:00N 47°17' W 002°01'0 0.0
2017-May-21 16:32N 47°17' W 002°01'0 2.6
2017-May-21 16:30N 47°17' W 002°01'3 5.3
2017-May-21 16:00N 47°18' W 002°05'1 1.1
2017-May-21 15:21N 47°18' W 002°06'0 0.8
2017-May-21 15:00N 47°18' W 002°06'3 5.3
2017-May-21 14:30N 47°17' W 002°10'2 1.5
2017-May-21 13:24N 47°16' W 002°12'0 0.2
2017-May-21 12:21N 47°16' W 002°12'0 0.9
2017-May-21 12:00N 47°16' W 002°12'0 0.5
2017-May-21 11:29N 47°16' W 002°12'0 0.0
2017-May-21 10:59N 47°16' W 002°12'0 0.8
2017-May-21 10:30N 47°16' W 002°11'4 7.2
2017-May-21 10:00N 47°18' W 002°07'4 7.1
2017-May-21 09:30N 47°18' W 002°02'1 1.1
2017-May-21 08:53N 47°17' W 002°01'0 0.0
2017-May-21 08:29N 47°17' W 002°01'0 0.0
2017-May-21 07:50N 47°17' W 002°01'0 0.0
2017-May-21 07:29N 47°17' W 002°01'0 0.0
2017-May-21 06:53N 47°17' W 002°01'0 0.0
2017-May-21 06:29N 47°17' W 002°01'0 0.0
2017-May-21 05:59N 47°17' W 002°01'0 0.0
2017-May-21 05:29N 47°17' W 002°01'0 0.0
2017-May-21 04:59N 47°17' W 002°01'0 0.0
2017-May-21 04:29N 47°17' W 002°01'0 0.0
2017-May-21 03:53N 47°17' W 002°01'0 0.0
2017-May-21 03:29N 47°17' W 002°01'0 0.0
2017-May-21 02:59N 47°17' W 002°01'0 0.0
2017-May-21 02:29N 47°17' W 002°01'0 0.0
2017-May-21 01:59N 47°17' W 002°01'0 0.0
2017-May-21 01:29N 47°17' W 002°01'0 0.0
2017-May-21 00:59N 47°17' W 002°01'0 0.0
2017-May-21 00:29N 47°17' W 002°01'0 0.0
2017-May-20 23:53N 47°17' W 002°01'0 0.0
2017-May-20 23:29N 47°17' W 002°01'0 0.0
2017-May-20 22:59N 47°17' W 002°01'0 0.0
2017-May-20 22:29N 47°17' W 002°01'0 0.0
2017-May-20 21:59N 47°17' W 002°01'0 0.0
2017-May-20 21:29N 47°17' W 002°01'0 0.0
2017-May-20 20:59N 47°17' W 002°01'0 0.0
2017-May-20 20:29N 47°17' W 002°01'0 0.0
2017-May-20 19:26N 47°17' W 002°01'0 0.0
2017-May-20 18:59N 47°17' W 002°01'0 0.0
2017-May-20 18:23N 47°17' W 002°01'0 0.0
2017-May-20 17:59N 47°17' W 002°01'0 0.0
2017-May-20 17:29N 47°17' W 002°01'0 0.0
2017-May-20 16:53N 47°17' W 002°01'0 0.0
2017-May-20 16:29N 47°17' W 002°01'2 3.6
2017-May-20 16:00N 47°18' W 002°03'2 3.4
2017-May-20 15:26N 47°18' W 002°06'0 0.4
2017-May-20 15:01N 47°18' W 002°06'1 1.2
2017-May-20 14:30N 47°18' W 002°07'0 0.4
2017-May-20 13:30N 47°18' W 002°07'0 0.1
2017-May-20 12:58N 47°18' W 002°08'0 0.2
2017-May-20 12:30N 47°18' W 002°07'0 0.0
2017-May-20 12:00N 47°18' W 002°07'0 0.0
2017-May-20 11:27N 47°18' W 002°07'1 2.1
2017-May-20 11:00N 47°18' W 002°06'3 6.6
2017-May-20 10:30N 47°17' W 002°01'0 0.0
2017-May-20 09:57N 47°17' W 002°01'0 0.0
2017-May-20 09:30N 47°17' W 002°01'0 0.0
2017-May-20 09:00N 47°17' W 002°01'0 0.0
2017-May-20 08:27N 47°17' W 002°01'0 0.0
2017-May-20 07:48N 47°17' W 002°01'0 0.0
2017-May-20 07:15N 47°17' W 002°01'0 0.0
2017-May-20 06:45N 47°17' W 002°01'0 0.0
2017-May-20 06:27N 47°17' W 002°01'0 0.0
2017-May-20 05:57N 47°17' W 002°01'0 0.0
2017-May-20 05:27N 47°17' W 002°01'0 0.0
2017-May-20 04:57N 47°17' W 002°01'0 0.0
2017-May-20 04:21N 47°17' W 002°01'0 0.0
2017-May-20 03:51N 47°17' W 002°01'0 0.0
2017-May-20 02:51N 47°17' W 002°01'0 0.0
2017-May-20 02:27N 47°17' W 002°01'0 0.0
2017-May-20 01:57N 47°17' W 002°01'0 0.0
2017-May-20 01:30N 47°17' W 002°01'0 0.0
2017-May-20 01:00N 47°17' W 002°01'0 0.0
2017-May-20 00:30N 47°17' W 002°01'0 0.0
2017-May-19 23:57N 47°17' W 002°01'0 0.0
2017-May-19 23:30N 47°17' W 002°01'0 0.0
2017-May-19 23:00N 47°17' W 002°01'0 0.0
2017-May-19 22:30N 47°17' W 002°01'0 0.0
2017-May-19 22:00N 47°17' W 002°01'0 0.0
2017-May-19 21:30N 47°17' W 002°01'0 0.0
2017-May-19 21:00N 47°17' W 002°01'0 0.0
2017-May-19 20:24N 47°17' W 002°01'0 0.0
2017-May-19 20:00N 47°17' W 002°01'0 0.0
2017-May-19 19:27N 47°17' W 002°01'0 0.0
2017-May-19 19:00N 47°17' W 002°01'0 0.0
2017-May-19 18:27N 47°17' W 002°01'0 0.0
2017-May-19 17:39N 47°17' W 002°01'0 0.0
2017-May-19 16:45N 47°17' W 002°01'0 0.0
2017-May-19 16:18N 47°17' W 002°01'2 5.2
2017-May-19 16:00N 47°18' W 002°03'1 1.5
2017-May-19 15:30N 47°18' W 002°04'0 0.0
2017-May-19 15:00N 47°18' W 002°04'0 0.1
2017-May-19 14:00N 47°18' W 002°04'0 0.1
2017-May-19 13:26N 47°18' W 002°04'0 0.0
2017-May-19 13:00N 47°18' W 002°04'0 0.0
2017-May-19 12:29N 47°18' W 002°04'0 0.1
2017-May-19 12:00N 47°18' W 002°04'0 0.1
2017-May-19 11:30N 47°18' W 002°04'0 0.0
2017-May-19 10:57N 47°18' W 002°04'0 0.0
2017-May-19 10:30N 47°18' W 002°04'0 0.2
2017-May-19 09:57N 47°18' W 002°04'2 3.9
2017-May-19 09:30N 47°18' W 002°02'1 0.9
2017-May-19 08:54N 47°17' W 002°01'0 0.0
2017-May-19 08:30N 47°17' W 002°01'0 0.0
2017-May-19 08:00N 47°17' W 002°01'0 0.0
2017-May-19 07:30N 47°17' W 002°01'0 0.0
2017-May-19 07:00N 47°17' W 002°01'0 0.0
2017-May-19 06:30N 47°17' W 002°01'0 0.0
2017-May-19 06:00N 47°17' W 002°01'0 0.0
2017-May-19 05:30N 47°17' W 002°01'0 0.0
2017-May-19 05:00N 47°17' W 002°01'0 0.0
2017-May-19 04:30N 47°17' W 002°01'0 0.0
2017-May-19 04:00N 47°17' W 002°01'0 0.0
2017-May-19 03:30N 47°17' W 002°01'0 0.0
2017-May-19 02:57N 47°17' W 002°01'0 0.0
2017-May-19 02:27N 47°17' W 002°01'0 0.0
2017-May-19 01:57N 47°17' W 002°01'0 0.0
2017-May-19 01:30N 47°17' W 002°01'0 0.0
2017-May-19 01:00N 47°17' W 002°01'0 0.0
2017-May-19 00:30N 47°17' W 002°01'0 0.0
2017-May-19 00:00N 47°17' W 002°01'0 0.0
2017-May-18 23:24N 47°17' W 002°01'0 0.0
2017-May-18 23:00N 47°17' W 002°01'0 0.0
2017-May-18 22:30N 47°17' W 002°01'0 0.0
2017-May-18 22:00N 47°17' W 002°01'0 0.0
2017-May-18 21:30N 47°17' W 002°01'0 0.0
2017-May-18 20:45N 47°17' W 002°01'0 0.0
2017-May-18 19:51N 47°17' W 002°01'0 0.0
2017-May-18 19:30N 47°17' W 002°01'0 0.0
2017-May-18 19:00N 47°17' W 002°01'0 0.0
2017-May-18 18:30N 47°17' W 002°01'0 0.0
2017-May-18 17:57N 47°17' W 002°01'0 0.0
2017-May-18 17:30N 47°17' W 002°01'0 0.0
2017-May-18 16:54N 47°17' W 002°01'0 0.0
2017-May-18 16:30N 47°17' W 002°01'0 0.0
2017-May-18 15:58N 47°17' W 002°01'3 5.8
2017-May-18 15:30N 47°18' W 002°05'2 3.3
2017-May-18 15:00N 47°18' W 002°07'0 0.0
2017-May-18 14:01N 47°18' W 002°07'0 0.2
2017-May-18 13:30N 47°18' W 002°07'0 0.0
2017-May-18 12:57N 47°18' W 002°07'0 0.3
2017-May-18 12:29N 47°18' W 002°07'0 0.3
2017-May-18 11:55N 47°18' W 002°07'0 0.2
2017-May-18 11:25N 47°18' W 002°07'0 0.1
2017-May-18 10:58N 47°18' W 002°07'0 0.2
2017-May-18 10:29N 47°18' W 002°07'4 7.5
2017-May-18 10:00N 47°18' W 002°02'5 9.1
2017-May-18 09:30N 47°17' W 001°56'4 8.1
2017-May-18 09:00N 47°15' W 001°51'4 7.5
2017-May-18 08:30N 47°12' W 001°46'0 0.4
2017-May-18 07:59N 47°12' W 001°46'0 0.1
2017-May-18 07:28N 47°12' W 001°46'0 0.2
2017-May-18 06:58N 47°12' W 001°46'0 0.1
2017-May-18 06:29N 47°12' W 001°46'4 8.2
2017-May-18 06:00N 47°15' W 001°51'5 9.6
2017-May-18 05:30N 47°17' W 001°57'3 2.1
2017-May-18 04:03N 47°17' W 002°01'0 0.0
2017-May-18 03:57N 47°17' W 002°01'0 0.0
2017-May-18 03:21N 47°17' W 002°01'0 0.0
2017-May-18 02:39N 47°17' W 002°01'0 0.0
2017-May-18 02:27N 47°17' W 002°01'0 0.0
2017-May-18 01:57N 47°17' W 002°01'0 0.0
2017-May-18 01:09N 47°17' W 002°01'0 0.0
2017-May-18 00:51N 47°17' W 002°01'0 0.0
2017-May-18 00:27N 47°17' W 002°01'0 0.0
2017-May-17 23:57N 47°17' W 002°01'0 0.0
2017-May-17 23:27N 47°17' W 002°01'0 0.0
2017-May-17 22:48N 47°17' W 002°01'0 0.0
2017-May-17 22:30N 47°17' W 002°01'0 0.0
2017-May-17 22:00N 47°17' W 002°01'0 0.0
2017-May-17 21:24N 47°17' W 002°01'0 0.0
2017-May-17 20:57N 47°17' W 002°01'0 0.0
2017-May-17 20:30N 47°17' W 002°01'0 0.0
2017-May-17 19:39N 47°17' W 002°01'0 0.0
2017-May-17 19:15N 47°17' W 002°01'0 0.0
2017-May-17 15:15N 47°17' W 002°01'0 0.0
2017-May-17 15:00N 47°17' W 002°01'2 3.4
2017-May-17 14:29N 47°18' W 002°03'3 3.0
2017-May-17 13:30N 47°18' W 002°08'0 0.2
2017-May-17 13:00N 47°18' W 002°08'0 0.0
2017-May-17 12:27N 47°18' W 002°08'0 0.0
2017-May-17 11:53N 47°18' W 002°08'0 0.2
2017-May-17 11:28N 47°18' W 002°08'0 0.1
2017-May-17 11:00N 47°18' W 002°08'0 0.0
2017-May-17 10:02N 47°18' W 002°08'0 0.0
2017-May-17 09:44N 47°18' W 002°08'0 0.1
2017-May-17 09:20N 47°18' W 002°08'0 0.2
2017-May-17 08:59N 47°18' W 002°08'1 2.6
2017-May-17 08:30N 47°18' W 002°06'1 1.1
2017-May-17 08:00N 47°18' W 002°07'1 1.5
2017-May-17 07:30N 47°18' W 002°08'1 2.7
2017-May-17 07:00N 47°18' W 002°06'1 1.3
2017-May-17 06:30N 47°18' W 002°05'0 0.0
2017-May-17 05:56N 47°18' W 002°05'2 4.9
2017-May-17 05:30N 47°18' W 002°02'1 0.7
2017-May-17 04:26N 47°17' W 002°01'0 0.0
2017-May-17 03:53N 47°17' W 002°01'0 0.0
2017-May-17 03:30N 47°17' W 002°01'0 0.0
2017-May-17 02:35N 47°17' W 002°01'0 0.0
2017-May-17 02:29N 47°17' W 002°01'0 0.0
2017-May-17 01:58N 47°17' W 002°01'0 0.0
2017-May-17 01:25N 47°17' W 002°01'0 0.0
2017-May-17 00:55N 47°17' W 002°01'0 0.0
2017-May-17 00:28N 47°17' W 002°01'0 0.0
2017-May-16 23:58N 47°17' W 002°01'0 0.0
2017-May-16 23:22N 47°17' W 002°01'0 0.0
2017-May-16 22:59N 47°17' W 002°01'0 0.0
2017-May-16 22:28N 47°17' W 002°01'0 0.0
2017-May-16 21:58N 47°17' W 002°01'0 0.0
2017-May-16 21:28N 47°17' W 002°01'0 0.0
2017-May-16 20:52N 47°17' W 002°01'0 0.0
2017-May-16 20:25N 47°17' W 002°01'0 0.0
2017-May-16 19:52N 47°17' W 002°01'0 0.0
2017-May-16 19:19N 47°17' W 002°01'0 0.0
2017-May-16 18:43N 47°17' W 002°01'0 0.0
2017-May-16 13:45N 47°17' W 002°01'2 8.3
2017-May-16 13:29N 47°17' W 001°58'510.2
2017-May-16 12:59N 47°15' W 001°51'5 1.7
2017-May-16 10:16N 47°12' W 001°46'0 0.0
2017-May-16 09:56N 47°12' W 001°46'0 0.0
2017-May-16 09:25N 47°12' W 001°46'0 0.0
2017-May-16 08:58N 47°12' W 001°46'0 0.0
2017-May-16 08:28N 47°12' W 001°46'0 0.0
2017-May-16 07:58N 47°12' W 001°46'0 0.0
2017-May-16 07:28N 47°12' W 001°46'0 0.0
2017-May-16 06:58N 47°12' W 001°46'0 0.0
2017-May-16 06:28N 47°12' W 001°46'0 0.0
2017-May-16 05:58N 47°12' W 001°46'0 0.0
2017-May-16 05:28N 47°12' W 001°46'0 0.0
2017-May-16 04:58N 47°12' W 001°46'0 0.0
2017-May-16 04:28N 47°12' W 001°46'0 0.0
2017-May-16 03:58N 47°12' W 001°46'0 0.0
2017-May-16 03:25N 47°12' W 001°46'0 0.0
2017-May-16 02:58N 47°12' W 001°46'0 0.0
2017-May-16 02:28N 47°12' W 001°46'0 0.0
2017-May-16 01:58N 47°12' W 001°46'0 0.0
2017-May-16 01:28N 47°12' W 001°46'0 0.0
2017-May-16 00:58N 47°12' W 001°46'0 0.0
2017-May-16 00:28N 47°12' W 001°46'0 0.0
2017-May-15 23:58N 47°12' W 001°46'0 0.0
2017-May-15 23:25N 47°12' W 001°46'0 0.0
2017-May-15 22:58N 47°12' W 001°46'0 0.0
2017-May-15 22:28N 47°12' W 001°46'0 0.0
2017-May-15 21:58N 47°12' W 001°46'0 0.0
2017-May-15 21:28N 47°12' W 001°46'0 0.0
2017-May-15 20:58N 47°12' W 001°46'0 0.0
2017-May-15 20:28N 47°12' W 001°46'0 0.0
2017-May-15 19:55N 47°12' W 001°46'0 0.0
2017-May-15 19:28N 47°12' W 001°46'0 0.0
2017-May-15 18:55N 47°12' W 001°46'0 0.0
2017-May-15 18:28N 47°12' W 001°46'0 0.0
2017-May-15 17:58N 47°12' W 001°46'0 0.0
2017-May-15 17:25N 47°12' W 001°46'0 0.0
2017-May-15 16:58N 47°12' W 001°46'0 0.0
2017-May-15 16:19N 47°12' W 001°46'0 0.0
2017-May-15 15:55N 47°12' W 001°46'0 0.0
2017-May-15 15:19N 47°12' W 001°46'0 0.0
2017-May-15 14:58N 47°12' W 001°46'0 0.0
2017-May-15 13:58N 47°12' W 001°46'0 0.0
2017-May-15 13:19N 47°12' W 001°46'0 0.0
2017-May-15 12:40N 47°12' W 001°46'0 0.0
2017-May-15 11:55N 47°12' W 001°46'0 0.0
2017-May-15 11:25N 47°12' W 001°46'0 0.0
2017-May-15 10:55N 47°12' W 001°46'0 0.0
2017-May-15 10:16N 47°12' W 001°46'0 0.0
2017-May-15 09:49N 47°12' W 001°46'0 0.0
2017-May-15 09:28N 47°12' W 001°46'0 0.0
2017-May-15 08:58N 47°12' W 001°46'0 0.0
2017-May-15 08:28N 47°12' W 001°46'0 0.0
2017-May-15 07:58N 47°12' W 001°46'0 0.0
2017-May-15 07:28N 47°12' W 001°46'0 0.0
2017-May-15 06:55N 47°12' W 001°46'0 0.0
2017-May-15 06:28N 47°12' W 001°46'0 0.0
2017-May-15 05:58N 47°12' W 001°46'0 0.0
2017-May-15 05:28N 47°12' W 001°46'0 0.0
2017-May-15 04:58N 47°12' W 001°46'0 0.0
2017-May-15 04:28N 47°12' W 001°46'0 0.0
2017-May-15 03:58N 47°12' W 001°46'0 0.0
2017-May-15 03:28N 47°12' W 001°46'0 0.0
2017-May-15 02:58N 47°12' W 001°46'0 0.0
2017-May-15 02:28N 47°12' W 001°46'0 0.0
2017-May-15 01:58N 47°12' W 001°46'0 0.0
2017-May-15 01:28N 47°12' W 001°46'0 0.0
2017-May-15 00:58N 47°12' W 001°46'0 0.0
2017-May-15 00:28N 47°12' W 001°46'0 0.0
2017-May-14 23:58N 47°12' W 001°46'0 0.0
2017-May-14 23:28N 47°12' W 001°46'0 0.0
2017-May-14 22:58N 47°12' W 001°46'0 0.0
2017-May-14 22:28N 47°12' W 001°46'0 0.0
2017-May-14 21:58N 47°12' W 001°46'0 0.0
2017-May-14 21:28N 47°12' W 001°46'0 0.0
2017-May-14 20:58N 47°12' W 001°46'0 0.0
2017-May-14 20:28N 47°12' W 001°46'0 0.0
2017-May-14 19:58N 47°12' W 001°46'0 0.0
2017-May-14 19:28N 47°12' W 001°46'0 0.0
2017-May-14 18:55N 47°12' W 001°46'0 0.0
2017-May-14 18:28N 47°12' W 001°46'0 0.0
2017-May-14 17:58N 47°12' W 001°46'0 0.0
2017-May-14 17:25N 47°12' W 001°46'0 0.0
2017-May-14 16:55N 47°12' W 001°46'0 0.0
2017-May-14 16:28N 47°12' W 001°46'0 0.0
2017-May-14 15:58N 47°12' W 001°46'0 0.0
2017-May-14 15:28N 47°12' W 001°46'0 0.0
2017-May-14 14:58N 47°12' W 001°46'0 0.0
2017-May-14 14:28N 47°12' W 001°46'0 0.0
2017-May-14 13:28N 47°12' W 001°46'0 0.0
2017-May-14 12:58N 47°12' W 001°46'0 0.0
2017-May-14 12:28N 47°12' W 001°46'0 0.0
2017-May-14 11:58N 47°12' W 001°46'0 0.0
2017-May-14 11:25N 47°12' W 001°46'0 0.0
2017-May-14 10:58N 47°12' W 001°46'0 0.0
2017-May-14 10:28N 47°12' W 001°46'0 0.0
2017-May-14 09:55N 47°12' W 001°46'0 0.0
2017-May-14 09:28N 47°12' W 001°46'0 0.0
2017-May-14 08:58N 47°12' W 001°46'0 0.0
2017-May-14 08:28N 47°12' W 001°46'0 0.0
2017-May-14 07:58N 47°12' W 001°46'0 0.0
2017-May-14 07:28N 47°12' W 001°46'0 0.0
2017-May-14 06:58N 47°12' W 001°46'0 0.0
2017-May-14 06:28N 47°12' W 001°46'0 0.0
2017-May-14 05:58N 47°12' W 001°46'0 0.0
2017-May-14 05:28N 47°12' W 001°46'0 0.0
2017-May-14 04:58N 47°12' W 001°46'0 0.0
2017-May-14 04:28N 47°12' W 001°46'0 0.0
2017-May-14 03:58N 47°12' W 001°46'0 0.0
2017-May-14 03:28N 47°12' W 001°46'0 0.0
2017-May-14 02:58N 47°12' W 001°46'0 0.0
2017-May-14 02:28N 47°12' W 001°46'0 0.0
2017-May-14 01:58N 47°12' W 001°46'0 0.0
2017-May-14 01:28N 47°12' W 001°46'0 0.0
2017-May-14 00:58N 47°12' W 001°46'0 0.0
2017-May-14 00:28N 47°12' W 001°46'0 0.0
2017-May-13 23:58N 47°12' W 001°46'0 0.0
2017-May-13 23:25N 47°12' W 001°46'0 0.0
2017-May-13 22:58N 47°12' W 001°46'0 0.0
2017-May-13 22:28N 47°12' W 001°46'0 0.0
2017-May-13 21:58N 47°12' W 001°46'0 0.0
2017-May-13 21:28N 47°12' W 001°46'0 0.0
2017-May-13 20:58N 47°12' W 001°46'0 0.0
2017-May-13 20:28N 47°12' W 001°46'0 0.0
2017-May-13 19:58N 47°12' W 001°46'0 0.0
2017-May-13 19:28N 47°12' W 001°46'0 0.0
2017-May-13 18:49N 47°12' W 001°46'0 0.0
2017-May-13 18:25N 47°12' W 001°46'0 0.0
2017-May-13 17:55N 47°12' W 001°46'0 0.0
2017-May-13 17:16N 47°12' W 001°46'0 0.0
2017-May-13 16:58N 47°12' W 001°46'0 0.0
2017-May-13 16:28N 47°12' W 001°46'0 0.0
2017-May-13 15:58N 47°12' W 001°46'0 0.0
2017-May-13 15:28N 47°12' W 001°46'0 0.0
2017-May-13 14:58N 47°12' W 001°46'0 0.0
2017-May-13 14:28N 47°12' W 001°46'  
Track history (hours):
 
Tides and Currents Weather Stations Pressure Air Temp Water Temp Dewpoint Dewpoint Depression Visibility Wind Speed Wind Dir Waves Ship Positions

Milouin

Last reported at 2017-May-23 14:00 UTC. Time now 2017-May-23 18:58 UTC.
Position N 47°18' W 002°04'.

Length 36 m; draft 2.5 m.

Type: Ship. MMSI: 227003190.

Date/timePositionNaut miles runAvg speedWind from/ knotsBaromVisibWave heightAir tempDewpointWater temp
2017-May-23 14:00N 47°18' W 002°04'4 9.0
2017-May-23 13:30N 47°17' W 002°10'1 2.4
2017-May-23 12:55N 47°17' W 002°12'0 0.2
2017-May-23 10:51N 47°17' W 002°12'0 0.0
2017-May-23 08:45N 47°17' W 002°12'0 0.0
2017-May-23 08:21N 47°17' W 002°12'0 0.0
2017-May-23 07:09N 47°17' W 002°12'0 0.2
2017-May-23 07:00N 47°17' W 002°12'1 1.2
2017-May-23 06:30N 47°16' W 002°12'0 0.0
2017-May-23 06:00N 47°16' W 002°12'0 0.0
2017-May-23 05:30N 47°16' W 002°12'0 0.0
2017-May-23 04:57N 47°16' W 002°12'0 0.0
2017-May-23 04:27N 47°16' W 002°12'0 0.0
2017-May-23 04:00N 47°16' W 002°12'0 0.0
2017-May-23 03:30N 47°16' W 002°12'0 0.0
2017-May-23 03:00N 47°16' W 002°12'0 0.0
2017-May-23 02:30N 47°16' W 002°12'0 0.0
2017-May-23 02:00N 47°16' W 002°12'0 0.0
2017-May-23 01:30N 47°16' W 002°12'0 0.0
2017-May-23 01:00N 47°16' W 002°12'0 0.0
2017-May-23 00:30N 47°16' W 002°12'0 0.0
2017-May-23 00:00N 47°16' W 002°12'0 0.0
2017-May-22 23:30N 47°16' W 002°12'0 0.0
2017-May-22 23:00N 47°16' W 002°12'0 0.0
2017-May-22 22:30N 47°16' W 002°12'0 0.0
2017-May-22 22:00N 47°16' W 002°12'0 0.0
2017-May-22 21:27N 47°16' W 002°12'0 0.0
2017-May-22 20:45N 47°16' W 002°12'0 0.0
2017-May-22 20:30N 47°16' W 002°12'0 0.0
2017-May-22 19:57N 47°16' W 002°12'0 0.0
2017-May-22 19:24N 47°16' W 002°12'0 0.0
2017-May-22 18:51N 47°16' W 002°12'0 0.0
2017-May-22 18:30N 47°16' W 002°12'0 0.0
2017-May-22 17:57N 47°16' W 002°12'0 0.0
2017-May-22 17:27N 47°16' W 002°12'0 0.0
2017-May-22 16:57N 47°16' W 002°12'0 0.0
2017-May-22 15:09N 47°16' W 002°12'0 0.0
2017-May-22 14:57N 47°16' W 002°12'0 0.3
2017-May-22 13:51N 47°17' W 002°12'0 1.1
2017-May-22 13:30N 47°16' W 002°12'4 6.9
2017-May-22 12:57N 47°18' W 002°07'2 3.6
2017-May-22 12:30N 47°18' W 002°04'2 4.3
2017-May-22 11:57N 47°17' W 002°01'0 0.0
2017-May-22 11:27N 47°17' W 002°01'0 0.0
2017-May-22 09:57N 47°17' W 002°01'0 0.0
2017-May-22 07:25N 47°17' W 002°01'0 0.7
2017-May-22 06:57N 47°18' W 002°01'0 0.1
2017-May-22 06:30N 47°18' W 002°01'0 0.2
2017-May-22 06:00N 47°18' W 002°01'0 0.5
2017-May-22 05:25N 47°18' W 002°01'0 0.1
2017-May-22 02:06N 47°17' W 002°01'0 0.0
2017-May-22 01:52N 47°17' W 002°01'0 0.0
2017-May-22 01:28N 47°17' W 002°01'0 0.0
2017-May-22 00:57N 47°17' W 002°01'0 0.0
2017-May-22 00:27N 47°17' W 002°01'0 0.0
2017-May-21 23:51N 47°17' W 002°01'0 0.0
2017-May-21 23:30N 47°17' W 002°01'0 0.0
2017-May-21 23:00N 47°17' W 002°01'0 0.0
2017-May-21 22:30N 47°17' W 002°01'0 0.0
2017-May-21 22:00N 47°17' W 002°01'0 0.0
2017-May-21 21:30N 47°17' W 002°01'0 0.0
2017-May-21 21:00N 47°17' W 002°01'0 0.0
2017-May-21 20:30N 47°17' W 002°01'0 0.0
2017-May-21 20:00N 47°17' W 002°01'0 0.0
2017-May-21 16:32N 47°17' W 002°01'0 2.6
2017-May-21 16:30N 47°17' W 002°01'3 5.3
2017-May-21 16:00N 47°18' W 002°05'1 1.1
2017-May-21 15:21N 47°18' W 002°06'0 0.8
2017-May-21 15:00N 47°18' W 002°06'3 5.3
2017-May-21 14:30N 47°17' W 002°10'2 1.5
2017-May-21 13:24N 47°16' W 002°12'0 0.2
2017-May-21 12:21N 47°16' W 002°12'0 0.9
2017-May-21 12:00N 47°16' W 002°12'0 0.5
2017-May-21 11:29N 47°16' W 002°12'0 0.0
2017-May-21 10:59N 47°16' W 002°12'0 0.8
2017-May-21 10:30N 47°16' W 002°11'4 7.2
2017-May-21 10:00N 47°18' W 002°07'4 7.1
2017-May-21 09:30N 47°18' W 002°02'1 1.1
2017-May-21 08:53N 47°17' W 002°01'0 0.0
2017-May-21 08:29N 47°17' W 002°01'0 0.0
2017-May-21 07:50N 47°17' W 002°01'0 0.0
2017-May-21 07:29N 47°17' W 002°01'0 0.0
2017-May-21 06:53N 47°17' W 002°01'0 0.0
2017-May-21 06:29N 47°17' W 002°01'0 0.0
2017-May-21 05:59N 47°17' W 002°01'0 0.0
2017-May-21 05:29N 47°17' W 002°01'0 0.0
2017-May-21 04:59N 47°17' W 002°01'0 0.0
2017-May-21 04:29N 47°17' W 002°01'0 0.0
2017-May-21 03:53N 47°17' W 002°01'0 0.0
2017-May-21 03:29N 47°17' W 002°01'0 0.0
2017-May-21 02:59N 47°17' W 002°01'0 0.0
2017-May-21 02:29N 47°17' W 002°01'0 0.0
2017-May-21 01:59N 47°17' W 002°01'0 0.0
2017-May-21 01:29N 47°17' W 002°01'0 0.0
2017-May-21 00:59N 47°17' W 002°01'0 0.0
2017-May-21 00:29N 47°17' W 002°01'0 0.0
2017-May-20 23:53N 47°17' W 002°01'0 0.0
2017-May-20 23:29N 47°17' W 002°01'0 0.0
2017-May-20 22:59N 47°17' W 002°01'0 0.0
2017-May-20 22:29N 47°17' W 002°01'0 0.0
2017-May-20 21:59N 47°17' W 002°01'0 0.0
2017-May-20 21:29N 47°17' W 002°01'0 0.0
2017-May-20 20:59N 47°17' W 002°01'0 0.0
2017-May-20 20:29N 47°17' W 002°01'0 0.0
2017-May-20 19:26N 47°17' W 002°01'0 0.0
2017-May-20 18:59N 47°17' W 002°01'0 0.0
2017-May-20 18:23N 47°17' W 002°01'0 0.0
2017-May-20 17:59N 47°17' W 002°01'0 0.0
2017-May-20 17:29N 47°17' W 002°01'0 0.0
2017-May-20 16:53N 47°17' W 002°01'0 0.0
2017-May-20 16:29N 47°17' W 002°01'2 3.6
2017-May-20 16:00N 47°18' W 002°03'2 3.4
2017-May-20 15:26N 47°18' W 002°06'0 0.4
2017-May-20 15:01N 47°18' W 002°06'1 1.2
2017-May-20 14:30N 47°18' W 002°07'0 0.4
2017-May-20 13:30N 47°18' W 002°07'0 0.1
2017-May-20 12:58N 47°18' W 002°08'0 0.2
2017-May-20 12:30N 47°18' W 002°07'0 0.0
2017-May-20 12:00N 47°18' W 002°07'0 0.0
2017-May-20 11:27N 47°18' W 002°07'1 2.1
2017-May-20 11:00N 47°18' W 002°06'3 6.6
2017-May-20 10:30N 47°17' W 002°01'0 0.0
2017-May-20 09:57N 47°17' W 002°01'0 0.0
2017-May-20 09:30N 47°17' W 002°01'0 0.0
2017-May-20 09:00N 47°17' W 002°01'0 0.0
2017-May-20 08:27N 47°17' W 002°01'0 0.0
2017-May-20 07:48N 47°17' W 002°01'0 0.0
2017-May-20 07:15N 47°17' W 002°01'0 0.0
2017-May-20 06:45N 47°17' W 002°01'0 0.0
2017-May-20 06:27N 47°17' W 002°01'0 0.0
2017-May-20 05:57N 47°17' W 002°01'0 0.0
2017-May-20 05:27N 47°17' W 002°01'0 0.0
2017-May-20 04:57N 47°17' W 002°01'0 0.0
2017-May-20 04:21N 47°17' W 002°01'0 0.0
2017-May-20 03:51N 47°17' W 002°01'0 0.0
2017-May-20 02:51N 47°17' W 002°01'0 0.0
2017-May-20 02:27N 47°17' W 002°01'0 0.0
2017-May-20 01:57N 47°17' W 002°01'0 0.0
2017-May-20 01:30N 47°17' W 002°01'0 0.0
2017-May-20 01:00N 47°17' W 002°01'0 0.0
2017-May-20 00:30N 47°17' W 002°01'0 0.0
2017-May-19 23:57N 47°17' W 002°01'0 0.0
2017-May-19 23:30N 47°17' W 002°01'0 0.0
2017-May-19 23:00N 47°17' W 002°01'0 0.0
2017-May-19 22:30N 47°17' W 002°01'0 0.0
2017-May-19 22:00N 47°17' W 002°01'0 0.0
2017-May-19 21:30N 47°17' W 002°01'0 0.0
2017-May-19 21:00N 47°17' W 002°01'0 0.0
2017-May-19 20:24N 47°17' W 002°01'0 0.0
2017-May-19 20:00N 47°17' W 002°01'0 0.0
2017-May-19 19:27N 47°17' W 002°01'0 0.0
2017-May-19 19:00N 47°17' W 002°01'0 0.0
2017-May-19 18:27N 47°17' W 002°01'0 0.0
2017-May-19 17:39N 47°17' W 002°01'0 0.0
2017-May-19 16:45N 47°17' W 002°01'0 0.0
2017-May-19 16:18N 47°17' W 002°01'2 5.2
2017-May-19 16:00N 47°18' W 002°03'1 1.5
2017-May-19 15:30N 47°18' W 002°04'0 0.0
2017-May-19 15:00N 47°18' W 002°04'0 0.1
2017-May-19 14:00N 47°18' W 002°04'0 0.1
2017-May-19 13:26N 47°18' W 002°04'0 0.0
2017-May-19 13:00N 47°18' W 002°04'0 0.0
2017-May-19 12:29N 47°18' W 002°04'0 0.1
2017-May-19 12:00N 47°18' W 002°04'0 0.1
2017-May-19 11:30N 47°18' W 002°04'0 0.0
2017-May-19 10:57N 47°18' W 002°04'0 0.0
2017-May-19 10:30N 47°18' W 002°04'0 0.2
2017-May-19 09:57N 47°18' W 002°04'2 3.9
2017-May-19 09:30N 47°18' W 002°02'1 0.9
2017-May-19 08:54N 47°17' W 002°01'0 0.0
2017-May-19 08:30N 47°17' W 002°01'0 0.0
2017-May-19 08:00N 47°17' W 002°01'0 0.0
2017-May-19 07:30N 47°17' W 002°01'0 0.0
2017-May-19 07:00N 47°17' W 002°01'0 0.0
2017-May-19 06:30N 47°17' W 002°01'0 0.0
2017-May-19 06:00N 47°17' W 002°01'0 0.0
2017-May-19 05:30N 47°17' W 002°01'0 0.0
2017-May-19 05:00N 47°17' W 002°01'0 0.0
2017-May-19 04:30N 47°17' W 002°01'0 0.0
2017-May-19 04:00N 47°17' W 002°01'0 0.0
2017-May-19 03:30N 47°17' W 002°01'0 0.0
2017-May-19 02:57N 47°17' W 002°01'0 0.0
2017-May-19 02:27N 47°17' W 002°01'0 0.0
2017-May-19 01:57N 47°17' W 002°01'0 0.0
2017-May-19 01:30N 47°17' W 002°01'0 0.0
2017-May-19 01:00N 47°17' W 002°01'0 0.0
2017-May-19 00:30N 47°17' W 002°01'0 0.0
2017-May-19 00:00N 47°17' W 002°01'0 0.0
2017-May-18 23:24N 47°17' W 002°01'0 0.0
2017-May-18 23:00N 47°17' W 002°01'0 0.0
2017-May-18 22:30N 47°17' W 002°01'0 0.0
2017-May-18 22:00N 47°17' W 002°01'0 0.0
2017-May-18 21:30N 47°17' W 002°01'0 0.0
2017-May-18 20:45N 47°17' W 002°01'0 0.0
2017-May-18 19:51N 47°17' W 002°01'0 0.0
2017-May-18 19:30N 47°17' W 002°01'0 0.0
2017-May-18 19:00N 47°17' W 002°01'0 0.0
2017-May-18 18:30N 47°17' W 002°01'0 0.0
2017-May-18 17:57N 47°17' W 002°01'0 0.0
2017-May-18 17:30N 47°17' W 002°01'0 0.0
2017-May-18 16:54N 47°17' W 002°01'0 0.0
2017-May-18 16:30N 47°17' W 002°01'0 0.0
2017-May-18 15:58N 47°17' W 002°01'3 5.8
2017-May-18 15:30N 47°18' W 002°05'2 3.3
2017-May-18 15:00N 47°18' W 002°07'0 0.0
2017-May-18 14:01N 47°18' W 002°07'0 0.2
2017-May-18 13:30N 47°18' W 002°07'0 0.0
2017-May-18 12:57N 47°18' W 002°07'0 0.3
2017-May-18 12:29N 47°18' W 002°07'0 0.3
2017-May-18 11:55N 47°18' W 002°07'0 0.2
2017-May-18 11:25N 47°18' W 002°07'0 0.1
2017-May-18 10:58N 47°18' W 002°07'0 0.2
2017-May-18 10:29N 47°18' W 002°07'4 7.5
2017-May-18 10:00N 47°18' W 002°02'5 9.1
2017-May-18 09:30N 47°17' W 001°56'4 8.1
2017-May-18 09:00N 47°15' W 001°51'4 7.5
2017-May-18 08:30N 47°12' W 001°46'0 0.4
2017-May-18 07:59N 47°12' W 001°46'0 0.1
2017-May-18 07:28N 47°12' W 001°46'0 0.2
2017-May-18 06:58N 47°12' W 001°46'0 0.1
2017-May-18 06:29N 47°12' W 001°46'4 8.2
2017-May-18 06:00N 47°15' W 001°51'5 9.6
2017-May-18 05:30N 47°17' W 001°57'3 2.1
2017-May-18 04:03N 47°17' W 002°01'0 0.0
2017-May-18 03:57N 47°17' W 002°01'0 0.0
2017-May-18 03:21N 47°17' W 002°01'0 0.0
2017-May-18 02:39N 47°17' W 002°01'0 0.0
2017-May-18 02:27N 47°17' W 002°01'0 0.0
2017-May-18 01:57N 47°17' W 002°01'0 0.0
2017-May-18 01:09N 47°17' W 002°01'0 0.0
2017-May-18 00:51N 47°17' W 002°01'0 0.0
2017-May-18 00:27N 47°17' W 002°01'0 0.0
2017-May-17 23:57N 47°17' W 002°01'0 0.0
2017-May-17 23:27N 47°17' W 002°01'0 0.0
2017-May-17 22:48N 47°17' W 002°01'0 0.0
2017-May-17 22:30N 47°17' W 002°01'0 0.0
2017-May-17 22:00N 47°17' W 002°01'0 0.0
2017-May-17 21:24N 47°17' W 002°01'0 0.0
2017-May-17 20:57N 47°17' W 002°01'0 0.0
2017-May-17 20:30N 47°17' W 002°01'0 0.0
2017-May-17 19:39N 47°17' W 002°01'0 0.0
2017-May-17 19:15N 47°17' W 002°01'0 0.0
2017-May-17 15:15N 47°17' W 002°01'0 0.0
2017-May-17 15:00N 47°17' W 002°01'2 3.4
2017-May-17 14:29N 47°18' W 002°03'3 3.0
2017-May-17 13:30N 47°18' W 002°08'0 0.2
2017-May-17 13:00N 47°18' W 002°08'0 0.0
2017-May-17 12:27N 47°18' W 002°08'0 0.0
2017-May-17 11:53N 47°18' W 002°08'0 0.2
2017-May-17 11:28N 47°18' W 002°08'0 0.1
2017-May-17 11:00N 47°18' W 002°08'0 0.0
2017-May-17 10:02N 47°18' W 002°08'0 0.0
2017-May-17 09:44N 47°18' W 002°08'0 0.1
2017-May-17 09:20N 47°18' W 002°08'0 0.2
2017-May-17 08:59N 47°18' W 002°08'1 2.6
2017-May-17 08:30N 47°18' W 002°06'1 1.1
2017-May-17 08:00N 47°18' W 002°07'1 1.5
2017-May-17 07:30N 47°18' W 002°08'1 2.7
2017-May-17 07:00N 47°18' W 002°06'1 1.3
2017-May-17 06:30N 47°18' W 002°05'0 0.0
2017-May-17 05:56N 47°18' W 002°05'2 4.9
2017-May-17 05:30N 47°18' W 002°02'1 0.7
2017-May-17 04:26N 47°17' W 002°01'0 0.0
2017-May-17 03:53N 47°17' W 002°01'0 0.0
2017-May-17 03:30N 47°17' W 002°01'0 0.0
2017-May-17 02:35N 47°17' W 002°01'0 0.0
2017-May-17 02:29N 47°17' W 002°01'0 0.0
2017-May-17 01:58N 47°17' W 002°01'0 0.0
2017-May-17 01:25N 47°17' W 002°01'0 0.0
2017-May-17 00:55N 47°17' W 002°01'0 0.0
2017-May-17 00:28N 47°17' W 002°01'0 0.0
2017-May-16 23:58N 47°17' W 002°01'0 0.0
2017-May-16 23:22N 47°17' W 002°01'0 0.0
2017-May-16 22:59N 47°17' W 002°01'0 0.0
2017-May-16 22:28N 47°17' W 002°01'0 0.0
2017-May-16 21:58N 47°17' W 002°01'0 0.0
2017-May-16 21:28N 47°17' W 002°01'0 0.0
2017-May-16 20:52N 47°17' W 002°01'0 0.0
2017-May-16 20:25N 47°17' W 002°01'0 0.0
2017-May-16 19:52N 47°17' W 002°01'0 0.0
2017-May-16 19:19N 47°17' W 002°01'0 0.0
2017-May-16 18:43N 47°17' W 002°01'0 0.0
2017-May-16 13:45N 47°17' W 002°01'2 8.3
2017-May-16 13:29N 47°17' W 001°58'510.2
2017-May-16 12:59N 47°15' W 001°51'5 1.7
2017-May-16 10:16N 47°12' W 001°46'0 0.0
2017-May-16 09:56N 47°12' W 001°46'0 0.0
2017-May-16 09:25N 47°12' W 001°46'0 0.0
2017-May-16 08:58N 47°12' W 001°46'0 0.0
2017-May-16 08:28N 47°12' W 001°46'0 0.0
2017-May-16 07:58N 47°12' W 001°46'0 0.0
2017-May-16 07:28N 47°12' W 001°46'0 0.0
2017-May-16 06:58N 47°12' W 001°46'0 0.0
2017-May-16 06:28N 47°12' W 001°46'0 0.0
2017-May-16 05:58N 47°12' W 001°46'0 0.0
2017-May-16 05:28N 47°12' W 001°46'0 0.0
2017-May-16 04:58N 47°12' W 001°46'0 0.0
2017-May-16 04:28N 47°12' W 001°46'0 0.0
2017-May-16 03:58N 47°12' W 001°46'0 0.0
2017-May-16 03:25N 47°12' W 001°46'0 0.0
2017-May-16 02:58N 47°12' W 001°46'0 0.0
2017-May-16 02:28N 47°12' W 001°46'0 0.0
2017-May-16 01:58N 47°12' W 001°46'0 0.0
2017-May-16 01:28N 47°12' W 001°46'0 0.0
2017-May-16 00:58N 47°12' W 001°46'0 0.0
2017-May-16 00:28N 47°12' W 001°46'0 0.0
2017-May-15 23:58N 47°12' W 001°46'0 0.0
2017-May-15 23:25N 47°12' W 001°46'0 0.0
2017-May-15 22:58N 47°12' W 001°46'0 0.0
2017-May-15 22:28N 47°12' W 001°46'0 0.0
2017-May-15 21:58N 47°12' W 001°46'0 0.0
2017-May-15 21:28N 47°12' W 001°46'0 0.0
2017-May-15 20:58N 47°12' W 001°46'0 0.0
2017-May-15 20:28N 47°12' W 001°46'0 0.0
2017-May-15 19:55N 47°12' W 001°46'0 0.0
2017-May-15 19:28N 47°12' W 001°46'0 0.0
2017-May-15 18:55N 47°12' W 001°46'0 0.0
2017-May-15 18:28N 47°12' W 001°46'0 0.0
2017-May-15 17:58N 47°12' W 001°46'0 0.0
2017-May-15 17:25N 47°12' W 001°46'0 0.0
2017-May-15 16:58N 47°12' W 001°46'0 0.0
2017-May-15 16:19N 47°12' W 001°46'0 0.0
2017-May-15 15:55N 47°12' W 001°46'0 0.0
2017-May-15 15:19N 47°12' W 001°46'0 0.0
2017-May-15 14:58N 47°12' W 001°46'0 0.0
2017-May-15 13:58N 47°12' W 001°46'0 0.0
2017-May-15 13:19N 47°12' W 001°46'0 0.0
2017-May-15 12:40N 47°12' W 001°46'0 0.0
2017-May-15 11:55N 47°12' W 001°46'0 0.0
2017-May-15 11:25N 47°12' W 001°46'0 0.0
2017-May-15 10:55N 47°12' W 001°46'0 0.0
2017-May-15 10:16N 47°12' W 001°46'0 0.0
2017-May-15 09:49N 47°12' W 001°46'0 0.0
2017-May-15 09:28N 47°12' W 001°46'0 0.0
2017-May-15 08:58N 47°12' W 001°46'0 0.0
2017-May-15 08:28N 47°12' W 001°46'0 0.0
2017-May-15 07:58N 47°12' W 001°46'0 0.0
2017-May-15 07:28N 47°12' W 001°46'0 0.0
2017-May-15 06:55N 47°12' W 001°46'0 0.0
2017-May-15 06:28N 47°12' W 001°46'0 0.0
2017-May-15 05:58N 47°12' W 001°46'0 0.0
2017-May-15 05:28N 47°12' W 001°46'0 0.0
2017-May-15 04:58N 47°12' W 001°46'0 0.0
2017-May-15 04:28N 47°12' W 001°46'0 0.0
2017-May-15 03:58N 47°12' W 001°46'0 0.0
2017-May-15 03:28N 47°12' W 001°46'0 0.0
2017-May-15 02:58N 47°12' W 001°46'0 0.0
2017-May-15 02:28N 47°12' W 001°46'0 0.0
2017-May-15 01:58N 47°12' W 001°46'0 0.0
2017-May-15 01:28N 47°12' W 001°46'0 0.0
2017-May-15 00:58N 47°12' W 001°46'0 0.0
2017-May-15 00:28N 47°12' W 001°46'0 0.0
2017-May-14 23:58N 47°12' W 001°46'0 0.0
2017-May-14 23:28N 47°12' W 001°46'0 0.0
2017-May-14 22:58N 47°12' W 001°46'0 0.0
2017-May-14 22:28N 47°12' W 001°46'0 0.0
2017-May-14 21:58N 47°12' W 001°46'0 0.0
2017-May-14 21:28N 47°12' W 001°46'0 0.0
2017-May-14 20:58N 47°12' W 001°46'0 0.0
2017-May-14 20:28N 47°12' W 001°46'0 0.0
2017-May-14 19:58N 47°12' W 001°46'0 0.0
2017-May-14 19:28N 47°12' W 001°46'0 0.0
2017-May-14 18:55N 47°12' W 001°46'0 0.0
2017-May-14 18:28N 47°12' W 001°46'0 0.0
2017-May-14 17:58N 47°12' W 001°46'0 0.0
2017-May-14 17:25N 47°12' W 001°46'0 0.0
2017-May-14 16:55N 47°12' W 001°46'0 0.0
2017-May-14 16:28N 47°12' W 001°46'0 0.0
2017-May-14 15:58N 47°12' W 001°46'0 0.0
2017-May-14 15:28N 47°12' W 001°46'0 0.0
2017-May-14 14:58N 47°12' W 001°46'0 0.0
2017-May-14 14:28N 47°12' W 001°46'0 0.0
2017-May-14 13:28N 47°12' W 001°46'0 0.0
2017-May-14 12:58N 47°12' W 001°46'0 0.0
2017-May-14 12:28N 47°12' W 001°46'0 0.0
2017-May-14 11:58N 47°12' W 001°46'0 0.0
2017-May-14 11:25N 47°12' W 001°46'0 0.0
2017-May-14 10:58N 47°12' W 001°46'0 0.0
2017-May-14 10:28N 47°12' W 001°46'0 0.0
2017-May-14 09:55N 47°12' W 001°46'0 0.0
2017-May-14 09:28N 47°12' W 001°46'0 0.0
2017-May-14 08:58N 47°12' W 001°46'0 0.0
2017-May-14 08:28N 47°12' W 001°46'0 0.0
2017-May-14 07:58N 47°12' W 001°46'0 0.0
2017-May-14 07:28N 47°12' W 001°46'0 0.0
2017-May-14 06:58N 47°12' W 001°46'0 0.0
2017-May-14 06:28N 47°12' W 001°46'0 0.0
2017-May-14 05:58N 47°12' W 001°46'0 0.0
2017-May-14 05:28N 47°12' W 001°46'0 0.0
2017-May-14 04:58N 47°12' W 001°46'0 0.0
2017-May-14 04:28N 47°12' W 001°46'0 0.0
2017-May-14 03:58N 47°12' W 001°46'0 0.0
2017-May-14 03:28N 47°12' W 001°46'0 0.0
2017-May-14 02:58N 47°12' W 001°46'0 0.0
2017-May-14 02:28N 47°12' W 001°46'0 0.0
2017-May-14 01:58N 47°12' W 001°46'0 0.0
2017-May-14 01:28N 47°12' W 001°46'0 0.0
2017-May-14 00:58N 47°12' W 001°46'0 0.0
2017-May-14 00:28N 47°12' W 001°46'0 0.0
2017-May-13 23:58N 47°12' W 001°46'0 0.0
2017-May-13 23:25N 47°12' W 001°46'0 0.0
2017-May-13 22:58N 47°12' W 001°46'0 0.0
2017-May-13 22:28N 47°12' W 001°46'0 0.0
2017-May-13 21:58N 47°12' W 001°46'0 0.0
2017-May-13 21:28N 47°12' W 001°46'0 0.0
2017-May-13 20:58N 47°12' W 001°46'0 0.0
2017-May-13 20:28N 47°12' W 001°46'0 0.0
2017-May-13 19:58N 47°12' W 001°46'0 0.0
2017-May-13 19:28N 47°12' W 001°46'0 0.0
2017-May-13 18:49N 47°12' W 001°46'0 0.0
2017-May-13 18:25N 47°12' W 001°46'0 0.0
2017-May-13 17:55N 47°12' W 001°46'0 0.0
2017-May-13 17:16N 47°12' W 001°46'0 0.0
2017-May-13 16:58N 47°12' W 001°46'0 0.0
2017-May-13 16:28N 47°12' W 001°46'0 0.0
2017-May-13 15:58N 47°12' W 001°46'0 0.0
2017-May-13 15:28N 47°12' W 001°46'0 0.0
2017-May-13 14:58N 47°12' W 001°46'0 0.0
2017-May-13 14:28N 47°12' W 001°46'  

Dump ship's entire track history